sensor_id;sensor_type;location;lat;lon;timestamp;P1;durP1;ratioP1;P2;durP2;ratioP2
56997;SDS011;42890;44.244;22.530;2024-01-30T00:00:14;164.15;;;94.03;;
56997;SDS011;42890;44.244;22.530;2024-01-30T00:02:40;310.95;;;179.93;;
56997;SDS011;42890;44.244;22.530;2024-01-30T00:05:08;280.60;;;169.13;;
56997;SDS011;42890;44.244;22.530;2024-01-30T00:07:35;261.25;;;161.70;;
56997;SDS011;42890;44.244;22.530;2024-01-30T00:10:02;298.30;;;178.63;;
56997;SDS011;42890;44.244;22.530;2024-01-30T00:12:28;368.33;;;214.13;;
56997;SDS011;42890;44.244;22.530;2024-01-30T00:14:54;298.85;;;168.32;;
56997;SDS011;42890;44.244;22.530;2024-01-30T00:17:20;248.13;;;140.05;;
56997;SDS011;42890;44.244;22.530;2024-01-30T00:19:47;281.33;;;156.05;;
56997;SDS011;42890;44.244;22.530;2024-01-30T00:22:13;271.98;;;147.65;;
56997;SDS011;42890;44.244;22.530;2024-01-30T00:24:39;166.32;;;100.32;;
56997;SDS011;42890;44.244;22.530;2024-01-30T00:27:05;78.45;;;66.70;;
56997;SDS011;42890;44.244;22.530;2024-01-30T00:29:31;48.78;;;43.78;;
56997;SDS011;42890;44.244;22.530;2024-01-30T00:31:59;43.50;;;39.22;;
56997;SDS011;42890;44.244;22.530;2024-01-30T00:34:25;51.70;;;45.30;;
56997;SDS011;42890;44.244;22.530;2024-01-30T00:36:51;174.48;;;98.95;;
56997;SDS011;42890;44.244;22.530;2024-01-30T00:39:17;270.23;;;122.95;;
56997;SDS011;42890;44.244;22.530;2024-01-30T00:41:44;142.63;;;78.93;;
56997;SDS011;42890;44.244;22.530;2024-01-30T00:44:11;48.38;;;40.22;;
56997;SDS011;42890;44.244;22.530;2024-01-30T00:46:37;38.03;;;34.20;;
56997;SDS011;42890;44.244;22.530;2024-01-30T00:49:03;36.63;;;32.92;;
56997;SDS011;42890;44.244;22.530;2024-01-30T00:51:29;37.28;;;33.58;;
56997;SDS011;42890;44.244;22.530;2024-01-30T00:53:55;37.75;;;34.03;;
56997;SDS011;42890;44.244;22.530;2024-01-30T00:56:21;35.28;;;31.85;;
56997;SDS011;42890;44.244;22.530;2024-01-30T00:58:49;36.83;;;33.33;;
56997;SDS011;42890;44.244;22.530;2024-01-30T01:01:15;37.40;;;33.70;;
56997;SDS011;42890;44.244;22.530;2024-01-30T01:03:41;37.80;;;34.20;;
56997;SDS011;42890;44.244;22.530;2024-01-30T01:06:08;36.05;;;32.53;;
56997;SDS011;42890;44.244;22.530;2024-01-30T01:08:35;38.95;;;35.22;;
56997;SDS011;42890;44.244;22.530;2024-01-30T01:11:01;37.05;;;33.65;;
56997;SDS011;42890;44.244;22.530;2024-01-30T01:13:28;42.35;;;38.15;;
56997;SDS011;42890;44.244;22.530;2024-01-30T01:15:54;40.97;;;36.88;;
56997;SDS011;42890;44.244;22.530;2024-01-30T01:18:20;41.00;;;36.90;;
56997;SDS011;42890;44.244;22.530;2024-01-30T01:20:47;43.80;;;39.47;;
56997;SDS011;42890;44.244;22.530;2024-01-30T01:23:13;42.58;;;38.33;;
56997;SDS011;42890;44.244;22.530;2024-01-30T01:25:39;41.03;;;37.03;;
56997;SDS011;42890;44.244;22.530;2024-01-30T01:28:05;40.47;;;36.45;;
56997;SDS011;42890;44.244;22.530;2024-01-30T01:30:31;39.80;;;36.00;;
56997;SDS011;42890;44.244;22.530;2024-01-30T01:32:57;46.42;;;41.65;;
56997;SDS011;42890;44.244;22.530;2024-01-30T01:35:26;38.50;;;34.80;;
56997;SDS011;42890;44.244;22.530;2024-01-30T01:37:53;44.05;;;39.60;;
56997;SDS011;42890;44.244;22.530;2024-01-30T01:40:25;48.07;;;42.97;;
56997;SDS011;42890;44.244;22.530;2024-01-30T01:42:52;44.50;;;40.05;;
56997;SDS011;42890;44.244;22.530;2024-01-30T01:45:19;39.47;;;35.22;;
56997;SDS011;42890;44.244;22.530;2024-01-30T01:47:45;37.45;;;33.95;;
56997;SDS011;42890;44.244;22.530;2024-01-30T01:50:13;39.70;;;36.00;;
56997;SDS011;42890;44.244;22.530;2024-01-30T01:52:40;52.03;;;46.33;;
56997;SDS011;42890;44.244;22.530;2024-01-30T01:55:07;42.40;;;38.20;;
56997;SDS011;42890;44.244;22.530;2024-01-30T01:57:33;43.65;;;39.28;;
56997;SDS011;42890;44.244;22.530;2024-01-30T02:00:00;40.42;;;36.42;;
56997;SDS011;42890;44.244;22.530;2024-01-30T02:02:29;39.00;;;35.10;;
56997;SDS011;42890;44.244;22.530;2024-01-30T02:04:58;41.17;;;37.15;;
56997;SDS011;42890;44.244;22.530;2024-01-30T02:07:25;40.63;;;36.45;;
56997;SDS011;42890;44.244;22.530;2024-01-30T02:09:51;39.55;;;35.72;;
56997;SDS011;42890;44.244;22.530;2024-01-30T02:12:17;38.88;;;34.97;;
56997;SDS011;42890;44.244;22.530;2024-01-30T02:14:46;37.67;;;34.10;;
56997;SDS011;42890;44.244;22.530;2024-01-30T02:17:13;39.70;;;35.75;;
56997;SDS011;42890;44.244;22.530;2024-01-30T02:19:39;37.67;;;33.92;;
56997;SDS011;42890;44.244;22.530;2024-01-30T02:22:05;39.40;;;35.30;;
56997;SDS011;42890;44.244;22.530;2024-01-30T02:24:32;37.65;;;33.95;;
56997;SDS011;42890;44.244;22.530;2024-01-30T02:26:58;37.03;;;33.42;;
56997;SDS011;42890;44.244;22.530;2024-01-30T02:29:24;36.38;;;32.78;;
56997;SDS011;42890;44.244;22.530;2024-01-30T02:31:50;35.42;;;31.98;;
56997;SDS011;42890;44.244;22.530;2024-01-30T02:34:18;36.83;;;33.42;;
56997;SDS011;42890;44.244;22.530;2024-01-30T02:36:44;35.85;;;32.22;;
56997;SDS011;42890;44.244;22.530;2024-01-30T02:39:11;35.38;;;31.98;;
56997;SDS011;42890;44.244;22.530;2024-01-30T02:41:37;47.55;;;37.65;;
56997;SDS011;42890;44.244;22.530;2024-01-30T02:44:03;35.75;;;32.25;;
56997;SDS011;42890;44.244;22.530;2024-01-30T02:46:29;36.13;;;32.67;;
56997;SDS011;42890;44.244;22.530;2024-01-30T02:48:55;44.63;;;37.70;;
56997;SDS011;42890;44.244;22.530;2024-01-30T02:51:22;38.35;;;34.45;;
56997;SDS011;42890;44.244;22.530;2024-01-30T02:53:48;36.63;;;33.10;;
56997;SDS011;42890;44.244;22.530;2024-01-30T02:56:14;36.05;;;32.60;;
56997;SDS011;42890;44.244;22.530;2024-01-30T02:58:40;35.17;;;31.88;;
56997;SDS011;42890;44.244;22.530;2024-01-30T03:01:07;36.75;;;33.25;;
56997;SDS011;42890;44.244;22.530;2024-01-30T03:03:33;37.47;;;33.72;;
56997;SDS011;42890;44.244;22.530;2024-01-30T03:06:01;37.38;;;33.58;;
56997;SDS011;42890;44.244;22.530;2024-01-30T03:08:27;37.53;;;33.85;;
56997;SDS011;42890;44.244;22.530;2024-01-30T03:10:53;50.85;;;38.63;;
56997;SDS011;42890;44.244;22.530;2024-01-30T03:13:19;36.92;;;33.28;;
56997;SDS011;42890;44.244;22.530;2024-01-30T03:15:45;36.83;;;33.13;;
56997;SDS011;42890;44.244;22.530;2024-01-30T03:18:12;36.25;;;32.67;;
56997;SDS011;42890;44.244;22.530;2024-01-30T03:20:38;43.20;;;38.80;;
56997;SDS011;42890;44.244;22.530;2024-01-30T03:23:04;37.92;;;34.20;;
56997;SDS011;42890;44.244;22.530;2024-01-30T03:25:30;35.75;;;32.22;;
56997;SDS011;42890;44.244;22.530;2024-01-30T03:27:56;131.95;;;87.82;;
56997;SDS011;42890;44.244;22.530;2024-01-30T03:30:22;54.40;;;48.28;;
56997;SDS011;42890;44.244;22.530;2024-01-30T03:32:49;38.72;;;34.88;;
56997;SDS011;42890;44.244;22.530;2024-01-30T03:35:15;35.08;;;31.75;;
56997;SDS011;42890;44.244;22.530;2024-01-30T03:37:41;36.65;;;32.88;;
56997;SDS011;42890;44.244;22.530;2024-01-30T03:40:07;34.97;;;31.60;;
56997;SDS011;42890;44.244;22.530;2024-01-30T03:42:34;38.50;;;34.88;;
56997;SDS011;42890;44.244;22.530;2024-01-30T03:45:00;47.22;;;42.45;;
56997;SDS011;42890;44.244;22.530;2024-01-30T03:47:26;163.75;;;103.00;;
56997;SDS011;42890;44.244;22.530;2024-01-30T03:49:52;217.45;;;136.07;;
56997;SDS011;42890;44.244;22.530;2024-01-30T03:52:18;235.13;;;157.70;;
56997;SDS011;42890;44.244;22.530;2024-01-30T03:54:45;258.40;;;168.98;;
56997;SDS011;42890;44.244;22.530;2024-01-30T03:57:11;253.40;;;175.23;;
56997;SDS011;42890;44.244;22.530;2024-01-30T03:59:37;246.25;;;167.50;;
56997;SDS011;42890;44.244;22.530;2024-01-30T04:02:03;186.85;;;123.22;;
56997;SDS011;42890;44.244;22.530;2024-01-30T04:04:29;226.20;;;142.05;;
56997;SDS011;42890;44.244;22.530;2024-01-30T04:06:55;160.50;;;105.20;;
56997;SDS011;42890;44.244;22.530;2024-01-30T04:09:21;185.00;;;118.68;;
56997;SDS011;42890;44.244;22.530;2024-01-30T04:11:48;161.88;;;105.30;;
56997;SDS011;42890;44.244;22.530;2024-01-30T04:14:14;184.85;;;123.78;;
56997;SDS011;42890;44.244;22.530;2024-01-30T04:16:40;84.38;;;74.85;;
56997;SDS011;42890;44.244;22.530;2024-01-30T04:19:06;91.47;;;75.88;;
56997;SDS011;42890;44.244;22.530;2024-01-30T04:21:32;86.47;;;72.65;;
56997;SDS011;42890;44.244;22.530;2024-01-30T04:23:58;117.28;;;88.38;;
56997;SDS011;42890;44.244;22.530;2024-01-30T04:26:24;96.18;;;78.28;;
56997;SDS011;42890;44.244;22.530;2024-01-30T04:28:50;79.05;;;70.43;;
56997;SDS011;42890;44.244;22.530;2024-01-30T04:31:17;92.50;;;74.78;;
56997;SDS011;42890;44.244;22.530;2024-01-30T04:33:43;70.15;;;61.72;;
56997;SDS011;42890;44.244;22.530;2024-01-30T04:36:09;56.55;;;51.03;;
56997;SDS011;42890;44.244;22.530;2024-01-30T04:38:35;51.80;;;46.45;;
56997;SDS011;42890;44.244;22.530;2024-01-30T04:41:01;44.63;;;39.83;;
56997;SDS011;42890;44.244;22.530;2024-01-30T04:43:27;41.72;;;37.70;;
56997;SDS011;42890;44.244;22.530;2024-01-30T04:45:53;41.40;;;36.97;;
56997;SDS011;42890;44.244;22.530;2024-01-30T04:48:20;42.88;;;38.35;;
56997;SDS011;42890;44.244;22.530;2024-01-30T04:50:46;46.97;;;42.13;;
56997;SDS011;42890;44.244;22.530;2024-01-30T04:53:12;42.03;;;37.83;;
56997;SDS011;42890;44.244;22.530;2024-01-30T04:55:38;39.80;;;35.78;;
56997;SDS011;42890;44.244;22.530;2024-01-30T04:58:04;40.15;;;35.95;;
56997;SDS011;42890;44.244;22.530;2024-01-30T05:00:30;44.45;;;39.75;;
56997;SDS011;42890;44.244;22.530;2024-01-30T05:02:56;47.22;;;42.33;;
56997;SDS011;42890;44.244;22.530;2024-01-30T05:05:22;43.08;;;38.70;;
56997;SDS011;42890;44.244;22.530;2024-01-30T05:07:49;46.75;;;41.60;;
56997;SDS011;42890;44.244;22.530;2024-01-30T05:10:15;46.60;;;41.60;;
56997;SDS011;42890;44.244;22.530;2024-01-30T05:12:41;45.38;;;40.47;;
56997;SDS011;42890;44.244;22.530;2024-01-30T05:15:07;48.40;;;42.53;;
56997;SDS011;42890;44.244;22.530;2024-01-30T05:17:33;45.95;;;41.33;;
56997;SDS011;42890;44.244;22.530;2024-01-30T05:19:59;45.40;;;40.72;;
56997;SDS011;42890;44.244;22.530;2024-01-30T05:22:25;46.42;;;41.55;;
56997;SDS011;42890;44.244;22.530;2024-01-30T05:24:52;47.90;;;42.63;;
56997;SDS011;42890;44.244;22.530;2024-01-30T05:27:18;48.05;;;42.80;;
56997;SDS011;42890;44.244;22.530;2024-01-30T05:29:44;48.38;;;43.30;;
56997;SDS011;42890;44.244;22.530;2024-01-30T05:32:10;47.22;;;42.47;;
56997;SDS011;42890;44.244;22.530;2024-01-30T05:34:37;48.88;;;43.65;;
56997;SDS011;42890;44.244;22.530;2024-01-30T05:37:03;46.28;;;41.58;;
56997;SDS011;42890;44.244;22.530;2024-01-30T05:39:29;42.72;;;38.42;;
56997;SDS011;42890;44.244;22.530;2024-01-30T05:41:58;41.40;;;36.95;;
56997;SDS011;42890;44.244;22.530;2024-01-30T05:44:24;39.67;;;35.63;;
56997;SDS011;42890;44.244;22.530;2024-01-30T05:46:50;40.53;;;36.35;;
56997;SDS011;42890;44.244;22.530;2024-01-30T05:49:16;41.42;;;37.05;;
56997;SDS011;42890;44.244;22.530;2024-01-30T05:51:42;39.15;;;34.92;;
56997;SDS011;42890;44.244;22.530;2024-01-30T05:54:08;40.70;;;36.50;;
56997;SDS011;42890;44.244;22.530;2024-01-30T05:56:34;39.58;;;35.50;;
56997;SDS011;42890;44.244;22.530;2024-01-30T05:59:01;37.53;;;33.72;;
56997;SDS011;42890;44.244;22.530;2024-01-30T06:01:27;37.67;;;33.83;;
56997;SDS011;42890;44.244;22.530;2024-01-30T06:03:54;39.63;;;35.45;;
56997;SDS011;42890;44.244;22.530;2024-01-30T06:06:20;39.17;;;34.97;;
56997;SDS011;42890;44.244;22.530;2024-01-30T06:08:46;45.40;;;36.50;;
56997;SDS011;42890;44.244;22.530;2024-01-30T06:11:12;66.75;;;44.20;;
56997;SDS011;42890;44.244;22.530;2024-01-30T06:13:39;248.68;;;117.45;;
56997;SDS011;42890;44.244;22.530;2024-01-30T06:16:05;218.13;;;91.85;;
56997;SDS011;42890;44.244;22.530;2024-01-30T06:18:34;331.70;;;134.68;;
56997;SDS011;42890;44.244;22.530;2024-01-30T06:21:00;377.38;;;159.55;;
56997;SDS011;42890;44.244;22.530;2024-01-30T06:23:26;417.13;;;172.50;;
56997;SDS011;42890;44.244;22.530;2024-01-30T06:25:52;303.73;;;116.30;;
56997;SDS011;42890;44.244;22.530;2024-01-30T06:28:19;192.25;;;80.65;;
56997;SDS011;42890;44.244;22.530;2024-01-30T06:30:45;91.45;;;58.28;;
56997;SDS011;42890;44.244;22.530;2024-01-30T06:33:11;163.40;;;104.47;;
56997;SDS011;42890;44.244;22.530;2024-01-30T06:35:38;183.85;;;118.40;;
56997;SDS011;42890;44.244;22.530;2024-01-30T06:38:05;143.40;;;90.95;;
56997;SDS011;42890;44.244;22.530;2024-01-30T06:40:31;150.50;;;92.72;;
56997;SDS011;42890;44.244;22.530;2024-01-30T06:42:57;185.82;;;110.15;;
56997;SDS011;42890;44.244;22.530;2024-01-30T06:45:24;181.05;;;105.75;;
56997;SDS011;42890;44.244;22.530;2024-01-30T06:47:50;208.68;;;109.80;;
56997;SDS011;42890;44.244;22.530;2024-01-30T06:50:16;262.48;;;134.27;;
56997;SDS011;42890;44.244;22.530;2024-01-30T06:52:42;348.60;;;187.60;;
56997;SDS011;42890;44.244;22.530;2024-01-30T06:55:09;380.75;;;181.88;;
56997;SDS011;42890;44.244;22.530;2024-01-30T06:57:35;233.00;;;124.63;;
56997;SDS011;42890;44.244;22.530;2024-01-30T07:00:02;246.68;;;137.75;;
56997;SDS011;42890;44.244;22.530;2024-01-30T07:02:28;372.33;;;179.57;;
56997;SDS011;42890;44.244;22.530;2024-01-30T07:04:54;312.02;;;159.73;;
56997;SDS011;42890;44.244;22.530;2024-01-30T07:07:20;291.83;;;160.82;;
56997;SDS011;42890;44.244;22.530;2024-01-30T07:09:47;421.48;;;266.13;;
56997;SDS011;42890;44.244;22.530;2024-01-30T07:12:14;418.77;;;270.65;;
56997;SDS011;42890;44.244;22.530;2024-01-30T07:14:40;339.88;;;210.07;;
56997;SDS011;42890;44.244;22.530;2024-01-30T07:17:07;346.00;;;214.52;;
56997;SDS011;42890;44.244;22.530;2024-01-30T07:19:33;328.27;;;213.98;;
56997;SDS011;42890;44.244;22.530;2024-01-30T07:22:00;366.13;;;233.43;;
56997;SDS011;42890;44.244;22.530;2024-01-30T07:24:26;382.17;;;249.70;;
56997;SDS011;42890;44.244;22.530;2024-01-30T07:26:52;487.58;;;317.67;;
56997;SDS011;42890;44.244;22.530;2024-01-30T07:29:18;393.48;;;259.83;;
56997;SDS011;42890;44.244;22.530;2024-01-30T07:31:45;398.02;;;268.67;;
56997;SDS011;42890;44.244;22.530;2024-01-30T07:34:11;356.67;;;244.93;;
56997;SDS011;42890;44.244;22.530;2024-01-30T07:36:37;354.63;;;241.20;;
56997;SDS011;42890;44.244;22.530;2024-01-30T07:39:04;369.40;;;230.77;;
56997;SDS011;42890;44.244;22.530;2024-01-30T07:41:30;407.30;;;222.45;;
56997;SDS011;42890;44.244;22.530;2024-01-30T07:43:56;343.05;;;200.73;;
56997;SDS011;42890;44.244;22.530;2024-01-30T07:46:23;294.73;;;186.43;;
56997;SDS011;42890;44.244;22.530;2024-01-30T07:48:49;238.40;;;156.75;;
56997;SDS011;42890;44.244;22.530;2024-01-30T07:51:18;178.38;;;119.47;;
56997;SDS011;42890;44.244;22.530;2024-01-30T07:53:45;130.00;;;92.10;;
56997;SDS011;42890;44.244;22.530;2024-01-30T07:56:11;74.97;;;67.38;;
56997;SDS011;42890;44.244;22.530;2024-01-30T07:58:37;51.80;;;46.40;;
56997;SDS011;42890;44.244;22.530;2024-01-30T08:01:03;45.50;;;41.05;;
56997;SDS011;42890;44.244;22.530;2024-01-30T08:03:29;45.60;;;41.10;;
56997;SDS011;42890;44.244;22.530;2024-01-30T08:05:56;43.80;;;39.72;;
56997;SDS011;42890;44.244;22.530;2024-01-30T08:08:22;45.58;;;41.08;;
56997;SDS011;42890;44.244;22.530;2024-01-30T08:10:48;44.33;;;39.88;;
56997;SDS011;42890;44.244;22.530;2024-01-30T08:13:15;44.78;;;40.38;;
56997;SDS011;42890;44.244;22.530;2024-01-30T08:15:41;44.58;;;40.28;;
56997;SDS011;42890;44.244;22.530;2024-01-30T08:18:07;42.10;;;38.05;;
56997;SDS011;42890;44.244;22.530;2024-01-30T08:20:33;40.53;;;36.50;;
56997;SDS011;42890;44.244;22.530;2024-01-30T08:23:00;42.22;;;38.13;;
56997;SDS011;42890;44.244;22.530;2024-01-30T08:25:26;39.00;;;35.15;;
56997;SDS011;42890;44.244;22.530;2024-01-30T08:27:52;44.13;;;39.47;;
56997;SDS011;42890;44.244;22.530;2024-01-30T08:30:18;40.05;;;36.28;;
56997;SDS011;42890;44.244;22.530;2024-01-30T08:32:45;41.25;;;37.25;;
56997;SDS011;42890;44.244;22.530;2024-01-30T08:35:12;40.10;;;36.00;;
56997;SDS011;42890;44.244;22.530;2024-01-30T08:37:40;39.88;;;36.15;;
56997;SDS011;42890;44.244;22.530;2024-01-30T08:40:07;39.25;;;35.45;;
56997;SDS011;42890;44.244;22.530;2024-01-30T08:42:33;36.42;;;32.75;;
56997;SDS011;42890;44.244;22.530;2024-01-30T08:44:59;37.95;;;34.03;;
56997;SDS011;42890;44.244;22.530;2024-01-30T08:47:26;34.42;;;31.08;;
56997;SDS011;42890;44.244;22.530;2024-01-30T08:49:52;33.97;;;30.70;;
56997;SDS011;42890;44.244;22.530;2024-01-30T08:52:18;37.30;;;33.67;;
56997;SDS011;42890;44.244;22.530;2024-01-30T08:54:44;32.40;;;29.27;;
56997;SDS011;42890;44.244;22.530;2024-01-30T08:57:10;32.20;;;29.05;;
56997;SDS011;42890;44.244;22.530;2024-01-30T08:59:36;32.65;;;29.35;;
56997;SDS011;42890;44.244;22.530;2024-01-30T09:02:02;50.83;;;41.25;;
56997;SDS011;42890;44.244;22.530;2024-01-30T09:04:30;36.47;;;32.58;;
56997;SDS011;42890;44.244;22.530;2024-01-30T09:06:56;35.33;;;31.70;;
56997;SDS011;42890;44.244;22.530;2024-01-30T09:09:22;28.77;;;26.00;;
56997;SDS011;42890;44.244;22.530;2024-01-30T09:11:48;29.40;;;26.48;;
56997;SDS011;42890;44.244;22.530;2024-01-30T09:14:14;33.80;;;30.45;;
56997;SDS011;42890;44.244;22.530;2024-01-30T09:16:40;30.65;;;27.48;;
56997;SDS011;42890;44.244;22.530;2024-01-30T09:19:06;28.63;;;25.63;;
56997;SDS011;42890;44.244;22.530;2024-01-30T09:21:33;33.45;;;30.15;;
56997;SDS011;42890;44.244;22.530;2024-01-30T09:24:02;40.03;;;35.92;;
56997;SDS011;42890;44.244;22.530;2024-01-30T09:26:29;27.88;;;25.15;;
56997;SDS011;42890;44.244;22.530;2024-01-30T09:28:55;28.27;;;25.40;;
56997;SDS011;42890;44.244;22.530;2024-01-30T09:31:21;28.33;;;25.48;;
56997;SDS011;42890;44.244;22.530;2024-01-30T09:33:47;28.58;;;25.77;;
56997;SDS011;42890;44.244;22.530;2024-01-30T09:36:14;28.95;;;25.95;;
56997;SDS011;42890;44.244;22.530;2024-01-30T09:38:43;28.60;;;25.60;;
56997;SDS011;42890;44.244;22.530;2024-01-30T09:41:09;32.78;;;28.92;;
56997;SDS011;42890;44.244;22.530;2024-01-30T09:43:38;28.02;;;25.10;;
56997;SDS011;42890;44.244;22.530;2024-01-30T09:46:05;30.25;;;27.13;;
56997;SDS011;42890;44.244;22.530;2024-01-30T09:48:32;28.00;;;25.23;;
56997;SDS011;42890;44.244;22.530;2024-01-30T09:50:58;42.47;;;33.72;;
56997;SDS011;42890;44.244;22.530;2024-01-30T09:53:24;30.83;;;27.83;;
56997;SDS011;42890;44.244;22.530;2024-01-30T09:55:51;30.52;;;27.42;;
56997;SDS011;42890;44.244;22.530;2024-01-30T09:58:17;27.48;;;24.75;;
56997;SDS011;42890;44.244;22.530;2024-01-30T10:00:43;31.02;;;26.27;;
56997;SDS011;42890;44.244;22.530;2024-01-30T10:03:10;29.45;;;26.02;;
56997;SDS011;42890;44.244;22.530;2024-01-30T10:05:40;33.85;;;26.98;;
56997;SDS011;42890;44.244;22.530;2024-01-30T10:08:06;26.63;;;24.05;;
56997;SDS011;42890;44.244;22.530;2024-01-30T10:10:33;34.90;;;27.13;;
56997;SDS011;42890;44.244;22.530;2024-01-30T10:13:00;27.63;;;24.73;;
56997;SDS011;42890;44.244;22.530;2024-01-30T10:15:27;22.48;;;20.27;;
56997;SDS011;42890;44.244;22.530;2024-01-30T10:17:54;24.58;;;22.08;;
56997;SDS011;42890;44.244;22.530;2024-01-30T10:20:20;27.75;;;24.85;;
56997;SDS011;42890;44.244;22.530;2024-01-30T10:22:47;24.90;;;22.20;;
56997;SDS011;42890;44.244;22.530;2024-01-30T10:25:14;23.77;;;21.23;;
56997;SDS011;42890;44.244;22.530;2024-01-30T10:27:41;25.40;;;22.23;;
56997;SDS011;42890;44.244;22.530;2024-01-30T10:30:08;31.00;;;27.23;;
56997;SDS011;42890;44.244;22.530;2024-01-30T10:32:34;27.70;;;24.75;;
56997;SDS011;42890;44.244;22.530;2024-01-30T10:35:01;60.30;;;43.92;;
56997;SDS011;42890;44.244;22.530;2024-01-30T10:37:27;50.85;;;42.55;;
56997;SDS011;42890;44.244;22.530;2024-01-30T10:39:57;54.13;;;47.97;;
56997;SDS011;42890;44.244;22.530;2024-01-30T10:42:26;29.20;;;26.38;;
56997;SDS011;42890;44.244;22.530;2024-01-30T10:47:30;57.35;;;43.45;;
56997;SDS011;42890;44.244;22.530;2024-01-30T10:49:56;38.42;;;31.15;;
56997;SDS011;42890;44.244;22.530;2024-01-30T10:52:23;41.92;;;32.13;;
56997;SDS011;42890;44.244;22.530;2024-01-30T10:54:54;37.65;;;29.35;;
56997;SDS011;42890;44.244;22.530;2024-01-30T10:57:22;27.00;;;24.10;;
56997;SDS011;42890;44.244;22.530;2024-01-30T10:59:51;46.38;;;39.22;;
56997;SDS011;42890;44.244;22.530;2024-01-30T11:02:19;87.72;;;57.92;;
56997;SDS011;42890;44.244;22.530;2024-01-30T11:04:45;46.78;;;38.30;;
56997;SDS011;42890;44.244;22.530;2024-01-30T11:09:49;22.85;;;20.48;;
56997;SDS011;42890;44.244;22.530;2024-01-30T11:12:16;22.73;;;20.38;;
56997;SDS011;42890;44.244;22.530;2024-01-30T11:14:42;20.80;;;16.13;;
56997;SDS011;42890;44.244;22.530;2024-01-30T11:17:09;21.67;;;17.83;;
56997;SDS011;42890;44.244;22.530;2024-01-30T11:19:37;32.03;;;28.52;;
56997;SDS011;42890;44.244;22.530;2024-01-30T11:22:06;29.83;;;26.67;;
56997;SDS011;42890;44.244;22.530;2024-01-30T11:24:36;17.58;;;15.75;;
56997;SDS011;42890;44.244;22.530;2024-01-30T11:29:31;19.15;;;17.15;;
56997;SDS011;42890;44.244;22.530;2024-01-30T11:31:57;18.50;;;16.52;;
56997;SDS011;42890;44.244;22.530;2024-01-30T11:34:24;22.40;;;20.20;;
56997;SDS011;42890;44.244;22.530;2024-01-30T11:36:56;37.65;;;33.88;;
56997;SDS011;42890;44.244;22.530;2024-01-30T11:39:26;24.10;;;21.52;;
56997;SDS011;42890;44.244;22.530;2024-01-30T11:41:53;21.55;;;19.25;;
56997;SDS011;42890;44.244;22.530;2024-01-30T11:44:19;18.33;;;16.58;;
56997;SDS011;42890;44.244;22.530;2024-01-30T11:46:49;17.45;;;15.82;;
56997;SDS011;42890;44.244;22.530;2024-01-30T11:49:15;19.92;;;13.80;;
56997;SDS011;42890;44.244;22.530;2024-01-30T11:51:42;19.77;;;15.05;;
56997;SDS011;42890;44.244;22.530;2024-01-30T11:54:09;15.43;;;13.98;;
56997;SDS011;42890;44.244;22.530;2024-01-30T11:56:36;19.90;;;14.65;;
56997;SDS011;42890;44.244;22.530;2024-01-30T11:59:02;16.55;;;14.85;;
56997;SDS011;42890;44.244;22.530;2024-01-30T12:01:28;16.33;;;14.70;;
56997;SDS011;42890;44.244;22.530;2024-01-30T12:03:55;19.67;;;17.58;;
56997;SDS011;42890;44.244;22.530;2024-01-30T12:06:22;15.32;;;13.82;;
56997;SDS011;42890;44.244;22.530;2024-01-30T12:08:58;18.35;;;16.65;;
56997;SDS011;42890;44.244;22.530;2024-01-30T12:11:25;56.63;;;21.63;;
56997;SDS011;42890;44.244;22.530;2024-01-30T12:13:51;67.88;;;18.27;;
56997;SDS011;42890;44.244;22.530;2024-01-30T12:16:19;13.88;;;12.60;;
56997;SDS011;42890;44.244;22.530;2024-01-30T12:18:45;47.20;;;34.05;;
56997;SDS011;42890;44.244;22.530;2024-01-30T12:21:11;17.23;;;15.23;;
56997;SDS011;42890;44.244;22.530;2024-01-30T12:23:37;15.23;;;13.73;;
56997;SDS011;42890;44.244;22.530;2024-01-30T12:26:04;15.48;;;13.90;;
56997;SDS011;42890;44.244;22.530;2024-01-30T12:28:32;17.50;;;15.32;;
56997;SDS011;42890;44.244;22.530;2024-01-30T12:31:02;31.50;;;24.50;;
56997;SDS011;42890;44.244;22.530;2024-01-30T12:33:29;23.17;;;20.10;;
56997;SDS011;42890;44.244;22.530;2024-01-30T12:35:56;19.67;;;17.63;;
56997;SDS011;42890;44.244;22.530;2024-01-30T12:38:22;15.55;;;14.05;;
56997;SDS011;42890;44.244;22.530;2024-01-30T12:40:49;14.48;;;12.95;;
56997;SDS011;42890;44.244;22.530;2024-01-30T12:43:16;12.75;;;11.52;;
56997;SDS011;42890;44.244;22.530;2024-01-30T12:45:42;14.40;;;12.93;;
56997;SDS011;42890;44.244;22.530;2024-01-30T12:48:08;16.92;;;15.20;;
56997;SDS011;42890;44.244;22.530;2024-01-30T12:50:35;36.38;;;31.83;;
56997;SDS011;42890;44.244;22.530;2024-01-30T12:53:01;17.77;;;15.85;;
56997;SDS011;42890;44.244;22.530;2024-01-30T12:55:27;18.63;;;16.65;;
56997;SDS011;42890;44.244;22.530;2024-01-30T12:57:54;19.65;;;17.63;;
56997;SDS011;42890;44.244;22.530;2024-01-30T13:00:20;16.25;;;14.75;;
56997;SDS011;42890;44.244;22.530;2024-01-30T13:02:47;16.13;;;14.63;;
56997;SDS011;42890;44.244;22.530;2024-01-30T13:05:14;15.50;;;14.10;;
56997;SDS011;42890;44.244;22.530;2024-01-30T13:07:40;23.35;;;21.10;;
56997;SDS011;42890;44.244;22.530;2024-01-30T13:10:06;18.58;;;16.98;;
56997;SDS011;42890;44.244;22.530;2024-01-30T13:12:32;15.88;;;14.50;;
56997;SDS011;42890;44.244;22.530;2024-01-30T13:14:59;14.90;;;13.57;;
56997;SDS011;42890;44.244;22.530;2024-01-30T13:17:29;22.90;;;16.35;;
56997;SDS011;42890;44.244;22.530;2024-01-30T13:19:56;14.10;;;12.75;;
56997;SDS011;42890;44.244;22.530;2024-01-30T13:22:23;15.50;;;14.15;;
56997;SDS011;42890;44.244;22.530;2024-01-30T13:24:49;14.90;;;13.40;;
56997;SDS011;42890;44.244;22.530;2024-01-30T13:27:16;17.00;;;15.30;;
56997;SDS011;42890;44.244;22.530;2024-01-30T13:29:42;22.92;;;20.38;;
56997;SDS011;42890;44.244;22.530;2024-01-30T13:32:08;26.05;;;19.95;;
56997;SDS011;42890;44.244;22.530;2024-01-30T13:34:35;23.65;;;19.00;;
56997;SDS011;42890;44.244;22.530;2024-01-30T13:37:01;23.52;;;21.13;;
56997;SDS011;42890;44.244;22.530;2024-01-30T13:39:27;17.27;;;15.45;;
56997;SDS011;42890;44.244;22.530;2024-01-30T13:41:54;15.95;;;14.65;;
56997;SDS011;42890;44.244;22.530;2024-01-30T13:44:20;17.63;;;15.95;;
56997;SDS011;42890;44.244;22.530;2024-01-30T13:46:46;24.20;;;21.77;;
56997;SDS011;42890;44.244;22.530;2024-01-30T13:49:12;24.30;;;21.98;;
56997;SDS011;42890;44.244;22.530;2024-01-30T13:51:39;22.95;;;20.75;;
56997;SDS011;42890;44.244;22.530;2024-01-30T13:54:05;20.02;;;18.20;;
56997;SDS011;42890;44.244;22.530;2024-01-30T13:56:31;27.85;;;25.23;;
56997;SDS011;42890;44.244;22.530;2024-01-30T13:58:57;335.65;;;141.45;;
56997;SDS011;42890;44.244;22.530;2024-01-30T14:01:25;81.97;;;45.05;;
56997;SDS011;42890;44.244;22.530;2024-01-30T14:03:51;79.13;;;35.13;;
56997;SDS011;42890;44.244;22.530;2024-01-30T14:06:17;34.00;;;25.00;;